createdAt,value
2022-12-25T00:02:48.632Z,78.57
2022-12-25T00:07:44.911Z,78.85
2022-12-25T00:12:41.160Z,79.00
2022-12-25T00:17:37.576Z,79.85
2022-12-25T00:22:34.956Z,81.00
2022-12-25T00:27:31.867Z,82.18
2022-12-25T00:32:28.099Z,79.70
2022-12-25T00:37:24.305Z,84.20
2022-12-25T00:42:20.601Z,80.00
2022-12-25T00:47:17.515Z,81.32
2022-12-25T00:52:13.856Z,81.60
2022-12-25T00:57:10.087Z,84.57
2022-12-25T01:02:24.716Z,86.07
2022-12-25T01:07:21.768Z,84.82
2022-12-25T01:12:17.958Z,84.60
2022-12-25T01:17:14.141Z,85.68
2022-12-25T01:22:10.371Z,90.28
2022-12-25T01:27:06.593Z,89.28
2022-12-25T01:32:02.911Z,89.47
2022-12-25T01:36:59.232Z,87.90
2022-12-25T01:41:55.699Z,81.00
2022-12-25T01:46:51.999Z,78.40
2022-12-25T01:51:51.884Z,74.90
2022-12-25T01:56:49.728Z,75.15
2022-12-25T02:01:46.263Z,72.30
2022-12-25T02:06:42.779Z,78.18
2022-12-25T02:11:57.149Z,79.45
2022-12-25T02:16:58.954Z,75.10
2022-12-25T02:22:06.190Z,81.07
2022-12-25T02:27:18.166Z,79.88
2022-12-25T02:32:14.498Z,78.18
2022-12-25T02:37:14.677Z,83.47
2022-12-25T02:42:17.772Z,85.25
2022-12-25T02:47:32.782Z,84.18
2022-12-25T02:52:48.375Z,86.28
2022-12-25T02:58:05.321Z,86.13
2022-12-25T03:03:22.691Z,88.95
2022-12-25T03:08:21.506Z,86.93
2022-12-25T03:13:23.311Z,90.95
2022-12-25T03:18:24.193Z,88.13
2022-12-25T03:23:40.760Z,88.47
2022-12-25T03:28:37.004Z,91.28
2022-12-25T03:34:06.565Z,88.95
2022-12-25T03:39:28.569Z,94.82
2022-12-25T03:45:01.866Z,88.85
2022-12-25T03:50:16.820Z,88.93
2022-12-25T03:55:33.573Z,87.07
2022-12-25T04:00:48.731Z,86.25
2022-12-25T04:06:03.778Z,83.15
2022-12-25T04:11:18.830Z,86.97
2022-12-25T04:16:33.699Z,84.30
2022-12-25T04:21:48.726Z,89.78
2022-12-25T04:27:03.779Z,87.15
2022-12-25T04:32:18.760Z,84.05
2022-12-25T04:37:14.962Z,81.95
2022-12-25T04:42:11.235Z,83.50
2022-12-25T04:47:11.102Z,81.97
2022-12-25T04:52:08.101Z,83.10
2022-12-25T04:57:04.473Z,80.95
2022-12-25T05:02:00.782Z,77.32
2022-12-25T05:06:57.048Z,77.95
2022-12-25T05:11:53.282Z,80.38
2022-12-25T05:16:49.562Z,77.47
2022-12-25T05:21:45.807Z,78.32
2022-12-25T05:26:41.995Z,78.93
2022-12-25T05:31:38.250Z,80.28
2022-12-25T05:36:34.497Z,77.43
2022-12-25T05:41:34.133Z,78.07
2022-12-25T05:46:31.235Z,76.22
2022-12-25T05:51:27.563Z,78.28
2022-12-25T05:56:23.758Z,77.85
2022-12-25T06:01:21.251Z,78.07
2022-12-25T06:06:17.725Z,76.32
2022-12-25T06:11:14.826Z,78.32
2022-12-25T06:16:11.871Z,77.00
2022-12-25T06:21:09.628Z,77.03
2022-12-25T06:26:09.987Z,76.68
2022-12-25T06:31:07.615Z,76.00
2022-12-25T06:36:04.841Z,76.57
2022-12-25T06:41:04.814Z,76.82
2022-12-25T06:46:05.074Z,76.78
2022-12-25T06:51:02.210Z,75.25
2022-12-25T06:56:05.620Z,77.38
2022-12-25T07:01:06.570Z,75.35
2022-12-25T07:06:02.977Z,76.97
2022-12-25T07:10:59.622Z,80.90
2022-12-25T07:15:56.714Z,77.25
2022-12-25T07:20:55.121Z,74.88
2022-12-25T07:25:54.806Z,75.78
2022-12-25T07:30:51.057Z,78.35
2022-12-25T07:35:47.317Z,75.55
2022-12-25T07:40:45.421Z,78.82
2022-12-25T07:45:41.831Z,79.72
2022-12-25T07:50:38.067Z,78.32
2022-12-25T07:55:34.345Z,79.70
2022-12-25T08:00:32.719Z,79.07
2022-12-25T08:05:29.074Z,80.88
2022-12-25T08:10:25.314Z,79.82
2022-12-25T08:15:21.565Z,76.72
2022-12-25T08:20:17.833Z,82.07
2022-12-25T08:25:15.779Z,79.35
2022-12-25T08:30:12.124Z,77.47
2022-12-25T08:35:08.528Z,81.05
2022-12-25T08:40:05.720Z,82.97
2022-12-25T08:45:01.926Z,78.55
2022-12-25T08:49:58.138Z,78.38
2022-12-25T08:54:54.795Z,76.78
2022-12-25T08:59:51.015Z,81.43
2022-12-25T09:04:47.219Z,79.32
2022-12-25T09:09:43.511Z,75.95
2022-12-25T09:14:39.765Z,75.35
2022-12-25T09:19:36.001Z,75.60
2022-12-25T09:24:32.261Z,78.47
2022-12-25T09:29:28.459Z,78.75
2022-12-25T09:34:24.750Z,74.93
2022-12-25T09:39:21.008Z,71.85
2022-12-25T09:44:25.593Z,73.90
2022-12-25T09:49:29.743Z,69.28
2022-12-25T09:54:36.948Z,72.35
2022-12-25T09:59:33.140Z,68.82
2022-12-25T10:04:42.508Z,69.13
2022-12-25T10:09:50.776Z,69.65
2022-12-25T10:14:52.708Z,70.30
2022-12-25T10:20:08.279Z,68.05
2022-12-25T10:25:06.778Z,65.25
2022-12-25T10:30:06.482Z,69.97
2022-12-25T10:35:02.688Z,65.75
2022-12-25T10:39:58.953Z,67.20
2022-12-25T10:44:56.770Z,63.75
2022-12-25T10:49:53.993Z,67.63
2022-12-25T10:54:50.572Z,66.55
2022-12-25T10:59:48.090Z,65.28
2022-12-25T11:04:44.362Z,67.90
2022-12-25T11:09:40.582Z,72.50
2022-12-25T11:14:36.991Z,68.15
2022-12-25T11:19:35.039Z,69.88
2022-12-25T11:24:31.739Z,67.57
2022-12-25T11:29:43.398Z,71.65
2022-12-25T11:34:46.820Z,69.50
2022-12-25T11:39:43.157Z,69.57
2022-12-25T11:44:45.821Z,65.72
2022-12-25T11:54:56.749Z,68.53
2022-12-25T11:59:55.963Z,72.38
2022-12-25T12:05:00.792Z,67.85
2022-12-25T12:10:02.922Z,70.78
2022-12-25T12:15:18.020Z,67.07
2022-12-25T12:20:34.517Z,66.78
2022-12-25T12:25:31.073Z,67.63
2022-12-25T12:30:28.993Z,66.55
2022-12-25T12:35:30.046Z,68.65
2022-12-25T12:40:31.146Z,67.93
2022-12-25T12:45:29.603Z,66.57
2022-12-25T12:50:30.832Z,67.22
2022-12-25T12:55:28.285Z,67.70
2022-12-25T13:00:24.754Z,70.75
2022-12-25T13:05:39.715Z,72.45
2022-12-25T13:10:38.880Z,69.70
2022-12-25T13:15:35.431Z,73.28
2022-12-25T13:20:35.973Z,72.25
2022-12-25T13:25:32.183Z,72.88
2022-12-25T13:30:28.459Z,73.70
2022-12-25T13:35:24.963Z,74.40
2022-12-25T13:40:25.182Z,70.25
2022-12-25T13:45:23.717Z,70.97
2022-12-25T13:50:19.880Z,71.18
2022-12-25T13:55:20.305Z,71.63
2022-12-25T14:00:36.873Z,70.63
2022-12-25T14:05:42.268Z,70.43
2022-12-25T14:10:40.374Z,71.13
2022-12-25T14:15:38.482Z,73.43
2022-12-25T14:20:36.701Z,70.68
2022-12-25T14:25:51.021Z,74.05
2022-12-25T14:30:47.452Z,72.88
2022-12-25T14:35:44.299Z,72.57
2022-12-25T14:40:43.178Z,72.32
2022-12-25T14:45:39.444Z,70.30
2022-12-25T14:50:39.317Z,74.90
2022-12-25T14:55:37.100Z,73.18
2022-12-25T15:00:37.390Z,73.40
2022-12-25T15:05:33.745Z,75.60
2022-12-25T15:10:59.013Z,75.72
2022-12-25T15:15:51.926Z,77.95
2022-12-25T15:20:51.057Z,69.27
2022-12-25T15:25:47.524Z,72.03
2022-12-25T15:30:44.202Z,73.78
2022-12-25T15:35:40.465Z,70.43
2022-12-25T15:40:36.877Z,73.13
2022-12-25T15:45:33.209Z,72.22
2022-12-25T15:50:30.084Z,72.90
2022-12-25T15:55:26.294Z,68.97
2022-12-25T16:00:23.097Z,67.68
2022-12-25T16:05:19.490Z,70.60
2022-12-25T16:10:19.476Z,73.70
2022-12-25T16:15:15.791Z,71.22
2022-12-25T16:20:12.174Z,69.88
2022-12-25T16:25:16.698Z,72.05
2022-12-25T16:30:14.274Z,67.32
2022-12-25T16:35:11.305Z,67.32
2022-12-25T16:40:09.426Z,67.05
2022-12-25T16:45:06.196Z,66.10
2022-12-25T16:50:03.703Z,66.47
2022-12-25T16:55:00.275Z,68.15
2022-12-25T16:59:57.458Z,68.53
2022-12-25T17:04:54.540Z,66.35
2022-12-25T17:09:50.764Z,67.22
2022-12-25T17:14:46.960Z,66.47
2022-12-25T17:19:43.238Z,68.10
2022-12-25T17:24:41.394Z,67.43
2022-12-25T17:29:40.417Z,66.75
2022-12-25T17:34:37.276Z,67.15
2022-12-25T17:39:33.521Z,67.22
2022-12-25T17:44:29.780Z,67.78
2022-12-25T17:49:26.066Z,67.90
2022-12-25T17:54:22.453Z,69.53
2022-12-25T17:59:19.096Z,71.00
2022-12-25T18:04:15.614Z,69.80
2022-12-25T18:09:12.131Z,70.13
2022-12-25T18:14:11.110Z,69.50
2022-12-25T18:19:08.933Z,71.72
2022-12-25T18:24:05.714Z,73.35
2022-12-25T18:29:02.249Z,69.30
2022-12-25T18:33:59.580Z,70.00
2022-12-25T18:38:56.729Z,68.63
2022-12-25T18:43:55.634Z,70.70
2022-12-25T18:48:52.958Z,71.00
2022-12-25T18:53:49.395Z,70.97
2022-12-25T18:58:46.399Z,69.72
2022-12-25T19:03:43.437Z,69.30
2022-12-25T19:08:39.667Z,68.75
2022-12-25T19:13:35.887Z,71.47
2022-12-25T19:18:32.122Z,70.63
2022-12-25T19:23:28.369Z,72.38
2022-12-25T19:28:25.050Z,71.28
2022-12-25T19:33:21.684Z,70.97
2022-12-25T19:38:19.424Z,71.15
2022-12-25T19:43:15.631Z,69.68
2022-12-25T19:48:11.870Z,70.78
2022-12-25T19:53:08.104Z,70.32
2022-12-25T19:58:04.333Z,69.72
2022-12-25T20:03:01.275Z,68.32
2022-12-25T20:07:57.730Z,69.72
2022-12-25T20:12:54.036Z,67.72
2022-12-25T20:17:50.249Z,66.82
2022-12-25T20:22:46.515Z,65.32
2022-12-25T20:27:42.904Z,66.93
2022-12-25T20:32:40.714Z,65.55
2022-12-25T20:37:38.700Z,63.38
2022-12-25T20:42:35.096Z,64.38
2022-12-25T20:47:31.350Z,62.88
2022-12-25T20:52:27.597Z,64.82
2022-12-25T20:57:23.849Z,64.63
2022-12-25T21:02:34.569Z,65.75
2022-12-25T21:07:32.717Z,66.45
2022-12-25T21:12:29.008Z,64.55
2022-12-25T21:17:25.308Z,64.55
2022-12-25T21:22:21.615Z,64.93
2022-12-25T21:27:17.876Z,65.15
2022-12-25T21:32:32.989Z,67.25
2022-12-25T21:37:31.054Z,67.90
2022-12-25T21:42:27.339Z,64.93
2022-12-25T21:47:23.650Z,66.55
2022-12-25T21:52:19.869Z,65.60
2022-12-25T21:57:16.055Z,67.82
2022-12-25T22:02:12.459Z,67.60
2022-12-25T22:07:17.809Z,68.35
2022-12-25T22:12:34.550Z,69.53
2022-12-25T22:17:51.517Z,68.45
2022-12-25T22:22:47.865Z,70.15
2022-12-25T22:27:45.085Z,69.55
2022-12-25T22:32:41.619Z,69.43
2022-12-25T22:37:38.011Z,67.13
2022-12-25T22:42:34.786Z,69.28
2022-12-25T22:47:31.219Z,73.68
2022-12-25T22:52:27.511Z,71.68
2022-12-25T22:57:23.827Z,72.55
2022-12-25T23:02:20.610Z,72.75
2022-12-25T23:07:17.158Z,70.53
2022-12-25T23:12:33.424Z,70.72
2022-12-25T23:17:48.442Z,69.57
2022-12-25T23:23:03.325Z,70.75
2022-12-25T23:27:59.568Z,71.63
2022-12-25T23:32:56.323Z,69.10
2022-12-25T23:37:53.828Z,70.70
2022-12-25T23:42:50.137Z,71.13
2022-12-25T23:47:46.398Z,69.10
2022-12-25T23:52:42.676Z,70.82
2022-12-25T23:57:38.919Z,69.28
